sensor_id;sensor_type;location;lat;lon;timestamp;pressure;altitude;pressure_sealevel;temperature;humidity
52855;BME280;38719;51.418;7.286;2023-03-01T00:00:14;101194.84;;;2.41;55.66
52855;BME280;38719;51.418;7.286;2023-03-01T00:02:41;101193.03;;;2.37;56.26
52855;BME280;38719;51.418;7.286;2023-03-01T00:05:09;101192.13;;;2.34;55.58
52855;BME280;38719;51.418;7.286;2023-03-01T00:07:37;101193.91;;;2.33;55.63
52855;BME280;38719;51.418;7.286;2023-03-01T00:10:06;101188.56;;;2.25;55.55
52855;BME280;38719;51.418;7.286;2023-03-01T00:12:33;101190.34;;;2.27;55.90
52855;BME280;38719;51.418;7.286;2023-03-01T00:15:03;101187.69;;;2.25;55.92
52855;BME280;38719;51.418;7.286;2023-03-01T00:17:31;101179.78;;;2.22;55.91
52855;BME280;38719;51.418;7.286;2023-03-01T00:19:58;101183.22;;;2.18;55.97
52855;BME280;38719;51.418;7.286;2023-03-01T00:22:26;101177.97;;;2.18;56.00
52855;BME280;38719;51.418;7.286;2023-03-01T00:24:56;101175.38;;;2.22;56.11
52855;BME280;38719;51.418;7.286;2023-03-01T00:27:24;101170.06;;;2.16;55.98
52855;BME280;38719;51.418;7.286;2023-03-01T00:29:52;101170.09;;;2.18;56.31
52855;BME280;38719;51.418;7.286;2023-03-01T00:32:19;101167.50;;;2.19;56.24
52855;BME280;38719;51.418;7.286;2023-03-01T00:34:47;101164.81;;;2.16;56.01
52855;BME280;38719;51.418;7.286;2023-03-01T00:37:20;101170.03;;;2.12;56.40
52855;BME280;38719;51.418;7.286;2023-03-01T00:39:48;101165.66;;;2.12;56.09
52855;BME280;38719;51.418;7.286;2023-03-01T00:42:17;101159.50;;;2.12;56.14
52855;BME280;38719;51.418;7.286;2023-03-01T00:44:44;101170.03;;;2.12;56.27
52855;BME280;38719;51.418;7.286;2023-03-01T00:47:12;101166.53;;;2.11;55.98
52855;BME280;38719;51.418;7.286;2023-03-01T00:49:40;101156.00;;;2.09;56.06
52855;BME280;38719;51.418;7.286;2023-03-01T00:52:07;101151.63;;;2.10;56.20
52855;BME280;38719;51.418;7.286;2023-03-01T00:54:35;101146.34;;;2.07;56.57
52855;BME280;38719;51.418;7.286;2023-03-01T00:57:02;101142.81;;;2.05;56.01
52855;BME280;38719;51.418;7.286;2023-03-01T00:59:31;101151.50;;;1.95;56.32
52855;BME280;38719;51.418;7.286;2023-03-01T01:01:59;101137.41;;;1.88;56.22
52855;BME280;38719;51.418;7.286;2023-03-01T01:04:26;101150.47;;;1.82;56.69
52855;BME280;38719;51.418;7.286;2023-03-01T01:06:54;101142.53;;;1.74;56.71
52855;BME280;38719;51.418;7.286;2023-03-01T01:09:21;101146.00;;;1.70;56.90
52855;BME280;38719;51.418;7.286;2023-03-01T01:11:50;101138.91;;;1.63;57.19
52855;BME280;38719;51.418;7.286;2023-03-01T01:14:18;101132.69;;;1.56;57.23
52855;BME280;38719;51.418;7.286;2023-03-01T01:16:47;101141.47;;;1.55;57.16
52855;BME280;38719;51.418;7.286;2023-03-01T01:19:15;101137.09;;;1.55;57.04
52855;BME280;38719;51.418;7.286;2023-03-01T01:21:43;101130.84;;;1.45;57.31
52855;BME280;38719;51.418;7.286;2023-03-01T01:24:11;101135.19;;;1.42;57.36
52855;BME280;38719;51.418;7.286;2023-03-01T01:26:39;101123.75;;;1.35;57.50
52855;BME280;38719;51.418;7.286;2023-03-01T01:29:07;101125.44;;;1.30;57.45
52855;BME280;38719;51.418;7.286;2023-03-01T01:31:37;101130.69;;;1.32;57.78
52855;BME280;38719;51.418;7.286;2023-03-01T01:34:10;101120.19;;;1.32;57.73
52855;BME280;38719;51.418;7.286;2023-03-01T01:36:39;101117.59;;;1.33;57.74
52855;BME280;38719;51.418;7.286;2023-03-01T01:39:07;101118.50;;;1.38;57.80
52855;BME280;38719;51.418;7.286;2023-03-01T01:41:40;101112.41;;;1.38;57.36
52855;BME280;38719;51.418;7.286;2023-03-01T01:44:12;101122.84;;;1.35;57.59
52855;BME280;38719;51.418;7.286;2023-03-01T01:46:41;101120.28;;;1.41;58.32
52855;BME280;38719;51.418;7.286;2023-03-01T01:49:22;101123.81;;;1.41;57.36
52855;BME280;38719;51.418;7.286;2023-03-01T01:51:56;101116.06;;;1.52;56.92
52855;BME280;38719;51.418;7.286;2023-03-01T01:54:28;101116.84;;;1.45;57.08
52855;BME280;38719;51.418;7.286;2023-03-01T01:57:00;101114.22;;;1.45;57.55
52855;BME280;38719;51.418;7.286;2023-03-01T01:59:30;101116.00;;;1.48;57.49
52855;BME280;38719;51.418;7.286;2023-03-01T02:01:59;101116.00;;;1.48;57.95
52855;BME280;38719;51.418;7.286;2023-03-01T02:04:31;101110.75;;;1.46;57.38
52855;BME280;38719;51.418;7.286;2023-03-01T02:07:01;101106.31;;;1.43;57.56
52855;BME280;38719;51.418;7.286;2023-03-01T02:09:30;101094.00;;;1.38;57.88
52855;BME280;38719;51.418;7.286;2023-03-01T02:11:59;101094.94;;;1.40;57.56
52855;BME280;38719;51.418;7.286;2023-03-01T02:14:27;101101.88;;;1.36;57.58
52855;BME280;38719;51.418;7.286;2023-03-01T02:16:55;101093.09;;;1.36;57.91
52855;BME280;38719;51.418;7.286;2023-03-01T02:19:39;101093.97;;;1.33;57.34
52855;BME280;38719;51.418;7.286;2023-03-01T02:22:18;101093.94;;;1.32;57.37
52855;BME280;38719;51.418;7.286;2023-03-01T02:24:55;101100.00;;;1.27;57.97
52855;BME280;38719;51.418;7.286;2023-03-01T02:27:29;101091.25;;;1.27;57.63
52855;BME280;38719;51.418;7.286;2023-03-01T02:30:02;101091.19;;;1.22;57.69
52855;BME280;38719;51.418;7.286;2023-03-01T02:32:30;101088.63;;;1.25;57.56
52855;BME280;38719;51.418;7.286;2023-03-01T02:34:57;101089.50;;;1.27;57.89
52855;BME280;38719;51.418;7.286;2023-03-01T02:37:26;101089.44;;;1.21;57.60
52855;BME280;38719;51.418;7.286;2023-03-01T02:39:57;101094.69;;;1.20;57.80
52855;BME280;38719;51.418;7.286;2023-03-01T02:42:30;101098.13;;;1.14;57.32
52855;BME280;38719;51.418;7.286;2023-03-01T02:44:58;101095.47;;;1.12;57.78
52855;BME280;38719;51.418;7.286;2023-03-01T02:47:27;101082.31;;;1.08;57.52
52855;BME280;38719;51.418;7.286;2023-03-01T02:49:54;101090.97;;;1.04;57.90
52855;BME280;38719;51.418;7.286;2023-03-01T02:52:29;101089.22;;;1.01;58.20
52855;BME280;38719;51.418;7.286;2023-03-01T02:55:02;101088.34;;;1.04;58.09
52855;BME280;38719;51.418;7.286;2023-03-01T02:57:33;101097.16;;;1.07;58.42
52855;BME280;38719;51.418;7.286;2023-03-01T03:00:03;101087.50;;;1.06;58.17
52855;BME280;38719;51.418;7.286;2023-03-01T03:02:35;101090.19;;;1.09;57.80
52855;BME280;38719;51.418;7.286;2023-03-01T03:05:06;101093.75;;;1.15;58.00
52855;BME280;38719;51.418;7.286;2023-03-01T03:07:35;101084.19;;;1.20;57.97
52855;BME280;38719;51.418;7.286;2023-03-01T03:10:05;101078.94;;;1.20;58.10
52855;BME280;38719;51.418;7.286;2023-03-01T03:12:33;101079.00;;;1.24;57.90
52855;BME280;38719;51.418;7.286;2023-03-01T03:15:00;101083.38;;;1.24;57.55
52855;BME280;38719;51.418;7.286;2023-03-01T03:17:37;101085.09;;;1.22;57.25
52855;BME280;38719;51.418;7.286;2023-03-01T03:20:06;101079.78;;;1.17;57.65
52855;BME280;38719;51.418;7.286;2023-03-01T03:22:37;101080.63;;;1.13;57.61
52855;BME280;38719;51.418;7.286;2023-03-01T03:25:06;101077.94;;;1.08;57.85
52855;BME280;38719;51.418;7.286;2023-03-01T03:27:37;101079.72;;;1.11;57.89
52855;BME280;38719;51.418;7.286;2023-03-01T03:30:07;101077.94;;;1.10;58.04
52855;BME280;38719;51.418;7.286;2023-03-01T03:32:36;101073.59;;;1.12;57.58
52855;BME280;38719;51.418;7.286;2023-03-01T03:35:06;101074.44;;;1.08;58.08
52855;BME280;38719;51.418;7.286;2023-03-01T03:37:36;101073.53;;;1.06;57.55
52855;BME280;38719;51.418;7.286;2023-03-01T03:40:21;101070.00;;;1.04;58.27
52855;BME280;38719;51.418;7.286;2023-03-01T03:42:49;101069.97;;;0.99;58.38
52855;BME280;38719;51.418;7.286;2023-03-01T03:45:16;101072.44;;;0.88;58.26
52855;BME280;38719;51.418;7.286;2023-03-01T03:47:45;101072.38;;;0.85;58.36
52855;BME280;38719;51.418;7.286;2023-03-01T03:50:15;101061.03;;;0.86;58.87
52855;BME280;38719;51.418;7.286;2023-03-01T03:52:43;101057.44;;;0.78;58.18
52855;BME280;38719;51.418;7.286;2023-03-01T03:55:11;101051.31;;;0.77;58.35
52855;BME280;38719;51.418;7.286;2023-03-01T03:57:40;101045.16;;;0.74;58.58
52855;BME280;38719;51.418;7.286;2023-03-01T04:00:10;101044.22;;;0.70;58.58
52855;BME280;38719;51.418;7.286;2023-03-01T04:02:39;101031.03;;;0.62;58.53
52855;BME280;38719;51.418;7.286;2023-03-01T04:05:09;101037.16;;;0.63;58.32
52855;BME280;38719;51.418;7.286;2023-03-01T04:07:38;101033.66;;;0.64;58.78
52855;BME280;38719;51.418;7.286;2023-03-01T04:10:08;101028.41;;;0.61;58.76
52855;BME280;38719;51.418;7.286;2023-03-01T04:12:37;101039.66;;;0.55;59.08
52855;BME280;38719;51.418;7.286;2023-03-01T04:15:06;101043.19;;;0.57;58.77
52855;BME280;38719;51.418;7.286;2023-03-01T04:17:39;101045.81;;;0.57;59.07
52855;BME280;38719;51.418;7.286;2023-03-01T04:20:10;101052.78;;;0.57;58.92
52855;BME280;38719;51.418;7.286;2023-03-01T04:22:39;101047.56;;;0.57;59.06
52855;BME280;38719;51.418;7.286;2023-03-01T04:25:07;101054.56;;;0.59;58.72
52855;BME280;38719;51.418;7.286;2023-03-01T04:27:40;101049.41;;;0.64;58.89
52855;BME280;38719;51.418;7.286;2023-03-01T04:30:09;101058.25;;;0.72;58.45
52855;BME280;38719;51.418;7.286;2023-03-01T04:32:37;101052.16;;;0.75;58.22
52855;BME280;38719;51.418;7.286;2023-03-01T04:35:04;101053.00;;;0.72;58.15
52855;BME280;38719;51.418;7.286;2023-03-01T04:37:34;101041.59;;;0.69;58.40
52855;BME280;38719;51.418;7.286;2023-03-01T04:40:03;101052.91;;;0.64;58.87
52855;BME280;38719;51.418;7.286;2023-03-01T04:42:38;101048.53;;;0.63;58.45
52855;BME280;38719;51.418;7.286;2023-03-01T04:45:07;101044.13;;;0.61;58.34
52855;BME280;38719;51.418;7.286;2023-03-01T04:47:40;101040.59;;;0.57;58.82
52855;BME280;38719;51.418;7.286;2023-03-01T04:50:10;101041.47;;;0.59;58.60
52855;BME280;38719;51.418;7.286;2023-03-01T04:52:39;101044.94;;;0.57;58.48
52855;BME280;38719;51.418;7.286;2023-03-01T04:55:08;101042.38;;;0.61;58.55
52855;BME280;38719;51.418;7.286;2023-03-01T04:57:36;101037.97;;;0.57;58.51
52855;BME280;38719;51.418;7.286;2023-03-01T05:00:04;101038.84;;;0.59;58.58
52855;BME280;38719;51.418;7.286;2023-03-01T05:02:51;101027.47;;;0.57;58.47
52855;BME280;38719;51.418;7.286;2023-03-01T05:05:22;101032.63;;;0.51;58.37
52855;BME280;38719;51.418;7.286;2023-03-01T05:07:55;101034.41;;;0.52;59.08
52855;BME280;38719;51.418;7.286;2023-03-01T05:10:23;101039.66;;;0.52;59.15
52855;BME280;38719;51.418;7.286;2023-03-01T05:12:51;101036.13;;;0.50;59.32
52855;BME280;38719;51.418;7.286;2023-03-01T05:15:19;101035.25;;;0.51;59.31
52855;BME280;38719;51.418;7.286;2023-03-01T05:17:48;101031.72;;;0.49;58.76
52855;BME280;38719;51.418;7.286;2023-03-01T05:20:15;101032.53;;;0.43;58.95
52855;BME280;38719;51.418;7.286;2023-03-01T05:22:43;101039.47;;;0.40;59.96
52855;BME280;38719;51.418;7.286;2023-03-01T05:25:12;101041.19;;;0.38;59.66
52855;BME280;38719;51.418;7.286;2023-03-01T05:27:40;101033.22;;;0.31;59.81
52855;BME280;38719;51.418;7.286;2023-03-01T05:30:09;101028.81;;;0.27;59.72
52855;BME280;38719;51.418;7.286;2023-03-01T05:32:42;101028.72;;;0.21;59.98
52855;BME280;38719;51.418;7.286;2023-03-01T05:35:11;101023.53;;;0.26;59.66
52855;BME280;38719;51.418;7.286;2023-03-01T05:37:41;101023.53;;;0.24;59.45
52855;BME280;38719;51.418;7.286;2023-03-01T05:40:12;101033.16;;;0.25;60.19
52855;BME280;38719;51.418;7.286;2023-03-01T05:42:44;101026.13;;;0.23;59.43
52855;BME280;38719;51.418;7.286;2023-03-01T05:45:13;101019.19;;;0.25;59.92
52855;BME280;38719;51.418;7.286;2023-03-01T05:47:42;101021.81;;;0.28;60.01
52855;BME280;38719;51.418;7.286;2023-03-01T05:50:13;101020.91;;;0.26;59.85
52855;BME280;38719;51.418;7.286;2023-03-01T05:52:46;101030.56;;;0.28;59.78
52855;BME280;38719;51.418;7.286;2023-03-01T05:55:16;101022.75;;;0.30;59.68
52855;BME280;38719;51.418;7.286;2023-03-01T05:57:44;101016.59;;;0.29;59.82
52855;BME280;38719;51.418;7.286;2023-03-01T06:00:13;101016.50;;;0.23;59.66
52855;BME280;38719;51.418;7.286;2023-03-01T06:02:41;101020.06;;;0.28;60.45
52855;BME280;38719;51.418;7.286;2023-03-01T06:05:10;101015.56;;;0.18;60.85
52855;BME280;38719;51.418;7.286;2023-03-01T06:07:38;101011.22;;;0.19;60.29
52855;BME280;38719;51.418;7.286;2023-03-01T06:10:08;101023.44;;;0.18;60.96
52855;BME280;38719;51.418;7.286;2023-03-01T06:12:38;101022.56;;;0.18;61.26
52855;BME280;38719;51.418;7.286;2023-03-01T06:15:07;101023.44;;;0.18;60.42
52855;BME280;38719;51.418;7.286;2023-03-01T06:17:37;101022.59;;;0.22;60.81
52855;BME280;38719;51.418;7.286;2023-03-01T06:20:07;101017.34;;;0.21;60.47
52855;BME280;38719;51.418;7.286;2023-03-01T06:22:35;101018.16;;;0.15;60.80
52855;BME280;38719;51.418;7.286;2023-03-01T06:25:04;101021.63;;;0.14;61.04
52855;BME280;38719;51.418;7.286;2023-03-01T06:27:32;101019.94;;;0.18;61.38
52855;BME280;38719;51.418;7.286;2023-03-01T06:30:01;101008.63;;;0.20;60.50
52855;BME280;38719;51.418;7.286;2023-03-01T06:32:28;101012.94;;;0.18;60.78
52855;BME280;38719;51.418;7.286;2023-03-01T06:34:56;101016.50;;;0.23;61.00
52855;BME280;38719;51.418;7.286;2023-03-01T06:37:24;101019.22;;;0.28;60.32
52855;BME280;38719;51.418;7.286;2023-03-01T06:39:52;101014.03;;;0.32;60.22
52855;BME280;38719;51.418;7.286;2023-03-01T06:42:19;101019.34;;;0.37;59.91
52855;BME280;38719;51.418;7.286;2023-03-01T06:44:47;101014.06;;;0.36;60.28
52855;BME280;38719;51.418;7.286;2023-03-01T06:47:15;101022.94;;;0.45;59.47
52855;BME280;38719;51.418;7.286;2023-03-01T06:49:43;101018.53;;;0.43;59.71
52855;BME280;38719;51.418;7.286;2023-03-01T06:52:10;101018.53;;;0.43;60.00
52855;BME280;38719;51.418;7.286;2023-03-01T06:54:38;101014.19;;;0.43;60.00
52855;BME280;38719;51.418;7.286;2023-03-01T06:57:05;101016.84;;;0.48;59.66
52855;BME280;38719;51.418;7.286;2023-03-01T06:59:33;101014.31;;;0.53;59.57
52855;BME280;38719;51.418;7.286;2023-03-01T07:02:00;101010.81;;;0.54;59.79
52855;BME280;38719;51.418;7.286;2023-03-01T07:04:29;101003.88;;;0.57;59.85
52855;BME280;38719;51.418;7.286;2023-03-01T07:06:57;101000.41;;;0.60;59.47
52855;BME280;38719;51.418;7.286;2023-03-01T07:09:24;101005.66;;;0.60;59.80
52855;BME280;38719;51.418;7.286;2023-03-01T07:11:52;100996.09;;;0.63;59.91
52855;BME280;38719;51.418;7.286;2023-03-01T07:14:19;100990.91;;;0.68;59.95
52855;BME280;38719;51.418;7.286;2023-03-01T07:16:47;100998.88;;;0.76;59.74
52855;BME280;38719;51.418;7.286;2023-03-01T07:19:14;100999.75;;;0.78;59.53
52855;BME280;38719;51.418;7.286;2023-03-01T07:21:43;100995.47;;;0.85;59.55
52855;BME280;38719;51.418;7.286;2023-03-01T07:24:11;100996.38;;;0.87;59.35
52855;BME280;38719;51.418;7.286;2023-03-01T07:26:39;100992.84;;;0.85;59.65
52855;BME280;38719;51.418;7.286;2023-03-01T07:29:07;100992.97;;;0.95;59.35
52855;BME280;38719;51.418;7.286;2023-03-01T07:31:36;100983.34;;;0.96;59.37
52855;BME280;38719;51.418;7.286;2023-03-01T07:34:04;100984.22;;;0.96;59.54
52855;BME280;38719;51.418;7.286;2023-03-01T07:36:31;100984.22;;;0.95;59.36
52855;BME280;38719;51.418;7.286;2023-03-01T07:39:00;100980.72;;;0.94;59.67
52855;BME280;38719;51.418;7.286;2023-03-01T07:41:29;100979.03;;;1.00;59.33
52855;BME280;38719;51.418;7.286;2023-03-01T07:43:56;100976.47;;;1.07;59.12
52855;BME280;38719;51.418;7.286;2023-03-01T07:46:24;100980.00;;;1.09;58.76
52855;BME280;38719;51.418;7.286;2023-03-01T07:48:52;100980.97;;;1.19;58.85
52855;BME280;38719;51.418;7.286;2023-03-01T07:51:19;100988.00;;;1.20;59.02
52855;BME280;38719;51.418;7.286;2023-03-01T07:53:47;100985.38;;;1.22;58.70
52855;BME280;38719;51.418;7.286;2023-03-01T07:56:16;100990.66;;;1.26;59.10
52855;BME280;38719;51.418;7.286;2023-03-01T07:58:45;100984.63;;;1.38;58.65
52855;BME280;38719;51.418;7.286;2023-03-01T08:01:17;100988.22;;;1.48;57.89
52855;BME280;38719;51.418;7.286;2023-03-01T08:03:45;100988.28;;;1.51;58.19
52855;BME280;38719;51.418;7.286;2023-03-01T08:06:14;100996.25;;;1.64;58.07
52855;BME280;38719;51.418;7.286;2023-03-01T08:08:43;100994.53;;;1.69;57.88
52855;BME280;38719;51.418;7.286;2023-03-01T08:11:12;100997.22;;;1.73;58.00
52855;BME280;38719;51.418;7.286;2023-03-01T08:13:41;100994.59;;;1.75;58.12
52855;BME280;38719;51.418;7.286;2023-03-01T08:16:11;100996.38;;;1.79;58.10
52855;BME280;38719;51.418;7.286;2023-03-01T08:18:39;100988.47;;;1.81;58.50
52855;BME280;38719;51.418;7.286;2023-03-01T08:21:08;100995.59;;;1.91;58.02
52855;BME280;38719;51.418;7.286;2023-03-01T08:23:36;100993.88;;;1.95;58.16
52855;BME280;38719;51.418;7.286;2023-03-01T08:26:07;100992.16;;;2.03;57.90
52855;BME280;38719;51.418;7.286;2023-03-01T08:28:36;100996.56;;;2.08;57.91
52855;BME280;38719;51.418;7.286;2023-03-01T08:31:13;100991.41;;;2.19;57.38
52855;BME280;38719;51.418;7.286;2023-03-01T08:33:41;100989.66;;;2.26;57.30
52855;BME280;38719;51.418;7.286;2023-03-01T08:36:09;100983.59;;;2.32;56.46
52855;BME280;38719;51.418;7.286;2023-03-01T08:38:37;100983.63;;;2.38;56.65
52855;BME280;38719;51.418;7.286;2023-03-01T08:41:04;100979.16;;;2.28;57.26
52855;BME280;38719;51.418;7.286;2023-03-01T08:43:32;100974.81;;;2.37;56.98
52855;BME280;38719;51.418;7.286;2023-03-01T08:45:59;100971.38;;;2.49;56.62
52855;BME280;38719;51.418;7.286;2023-03-01T08:48:28;100975.75;;;2.49;57.03
52855;BME280;38719;51.418;7.286;2023-03-01T08:50:56;100960.91;;;2.65;57.02
52855;BME280;38719;51.418;7.286;2023-03-01T08:53:23;100959.19;;;2.73;56.56
52855;BME280;38719;51.418;7.286;2023-03-01T08:55:51;100955.69;;;2.77;56.64
52855;BME280;38719;51.418;7.286;2023-03-01T08:58:19;100954.00;;;2.82;56.14
52855;BME280;38719;51.418;7.286;2023-03-01T09:00:46;100950.47;;;2.80;57.17
52855;BME280;38719;51.418;7.286;2023-03-01T09:03:14;100962.75;;;2.87;56.05
52855;BME280;38719;51.418;7.286;2023-03-01T09:05:43;100953.13;;;3.00;55.71
52855;BME280;38719;51.418;7.286;2023-03-01T09:08:12;100953.16;;;3.10;55.28
52855;BME280;38719;51.418;7.286;2023-03-01T09:10:39;100950.53;;;3.13;54.99
52855;BME280;38719;51.418;7.286;2023-03-01T09:13:07;100959.28;;;3.04;55.60
52855;BME280;38719;51.418;7.286;2023-03-01T09:15:36;100956.69;;;3.07;55.39
52855;BME280;38719;51.418;7.286;2023-03-01T09:18:04;100959.31;;;3.19;54.40
52855;BME280;38719;51.418;7.286;2023-03-01T09:20:32;100952.31;;;3.18;54.26
52855;BME280;38719;51.418;7.286;2023-03-01T09:23:01;100957.53;;;3.08;54.76
52855;BME280;38719;51.418;7.286;2023-03-01T09:25:29;100947.03;;;3.25;54.76
52855;BME280;38719;51.418;7.286;2023-03-01T09:27:56;100947.03;;;3.40;54.14
52855;BME280;38719;51.418;7.286;2023-03-01T09:30:24;100937.41;;;3.42;53.95
52855;BME280;38719;51.418;7.286;2023-03-01T09:32:51;100933.88;;;3.43;53.91
52855;BME280;38719;51.418;7.286;2023-03-01T09:35:19;100929.47;;;3.51;52.90
52855;BME280;38719;51.418;7.286;2023-03-01T09:37:49;100927.72;;;3.47;52.90
52855;BME280;38719;51.418;7.286;2023-03-01T09:40:20;100929.47;;;3.64;52.81
52855;BME280;38719;51.418;7.286;2023-03-01T09:42:53;100935.63;;;3.60;52.79
52855;BME280;38719;51.418;7.286;2023-03-01T09:45:28;100929.47;;;3.70;52.44
52855;BME280;38719;51.418;7.286;2023-03-01T09:47:57;100923.31;;;3.76;52.07
52855;BME280;38719;51.418;7.286;2023-03-01T09:50:28;100926.78;;;3.95;52.09
52855;BME280;38719;51.418;7.286;2023-03-01T09:53:01;100918.00;;;4.10;52.38
52855;BME280;38719;51.418;7.286;2023-03-01T09:55:34;100913.59;;;4.13;51.52
52855;BME280;38719;51.418;7.286;2023-03-01T09:58:21;100920.63;;;4.10;51.39
52855;BME280;38719;51.418;7.286;2023-03-01T10:00:53;100927.69;;;4.00;52.13
52855;BME280;38719;51.418;7.286;2023-03-01T10:03:26;100920.63;;;4.05;51.73
52855;BME280;38719;51.418;7.286;2023-03-01T10:05:59;100913.50;;;4.30;51.92
52855;BME280;38719;51.418;7.286;2023-03-01T10:08:34;100906.41;;;4.46;50.91
52855;BME280;38719;51.418;7.286;2023-03-01T10:11:19;100913.41;;;4.57;50.44
52855;BME280;38719;51.418;7.286;2023-03-01T10:13:55;100905.50;;;4.58;50.35
52855;BME280;38719;51.418;7.286;2023-03-01T10:16:38;100909.84;;;4.64;49.98
52855;BME280;38719;51.418;7.286;2023-03-01T10:19:12;100912.47;;;4.72;49.18
52855;BME280;38719;51.418;7.286;2023-03-01T10:21:45;100913.25;;;4.84;50.13
52855;BME280;38719;51.418;7.286;2023-03-01T10:24:14;100915.03;;;4.76;49.45
52855;BME280;38719;51.418;7.286;2023-03-01T10:26:50;100915.91;;;4.80;49.48
52855;BME280;38719;51.418;7.286;2023-03-01T10:29:24;100910.59;;;4.89;49.75
52855;BME280;38719;51.418;7.286;2023-03-01T10:31:53;100909.69;;;4.89;49.70
52855;BME280;38719;51.418;7.286;2023-03-01T10:34:27;100901.72;;;4.99;49.23
52855;BME280;38719;51.418;7.286;2023-03-01T10:36:57;100891.97;;;5.09;48.45
52855;BME280;38719;51.418;7.286;2023-03-01T10:39:25;100898.00;;;5.27;49.26
52855;BME280;38719;51.418;7.286;2023-03-01T10:41:57;100899.66;;;5.36;48.45
52855;BME280;38719;51.418;7.286;2023-03-01T10:44:41;100884.56;;;5.52;48.91
52855;BME280;38719;51.418;7.286;2023-03-01T10:47:16;100880.13;;;5.55;47.80
52855;BME280;38719;51.418;7.286;2023-03-01T10:49:52;100872.19;;;5.57;48.88
52855;BME280;38719;51.418;7.286;2023-03-01T10:52:23;100872.97;;;5.68;47.88
52855;BME280;38719;51.418;7.286;2023-03-01T10:54:54;100868.63;;;5.61;47.11
52855;BME280;38719;51.418;7.286;2023-03-01T10:57:30;100865.91;;;5.72;46.95
52855;BME280;38719;51.418;7.286;2023-03-01T11:00:13;100862.47;;;5.59;47.75
52855;BME280;38719;51.418;7.286;2023-03-01T11:02:42;100867.63;;;5.74;47.71
52855;BME280;38719;51.418;7.286;2023-03-01T11:05:18;100852.59;;;5.79;46.57
52855;BME280;38719;51.418;7.286;2023-03-01T11:07:47;100855.97;;;5.91;47.73
52855;BME280;38719;51.418;7.286;2023-03-01T11:10:17;100847.97;;;6.02;47.27
52855;BME280;38719;51.418;7.286;2023-03-01T11:12:46;100852.38;;;5.98;46.87
52855;BME280;38719;51.418;7.286;2023-03-01T11:15:22;100844.44;;;6.03;46.65
52855;BME280;38719;51.418;7.286;2023-03-01T11:17:51;100839.94;;;6.09;46.61
52855;BME280;38719;51.418;7.286;2023-03-01T11:20:35;100838.06;;;6.19;46.23
52855;BME280;38719;51.418;7.286;2023-03-01T11:23:05;100835.28;;;6.28;46.71
52855;BME280;38719;51.418;7.286;2023-03-01T11:25:40;100831.75;;;6.28;45.73
52855;BME280;38719;51.418;7.286;2023-03-01T11:28:14;100829.84;;;6.39;47.10
52855;BME280;38719;51.418;7.286;2023-03-01T11:30:48;100826.25;;;6.43;45.99
52855;BME280;38719;51.418;7.286;2023-03-01T11:33:37;100825.50;;;6.35;46.08
52855;BME280;38719;51.418;7.286;2023-03-01T11:36:16;100827.28;;;6.33;46.08
52855;BME280;38719;51.418;7.286;2023-03-01T11:38:48;100824.66;;;6.32;45.93
52855;BME280;38719;51.418;7.286;2023-03-01T11:41:17;100815.66;;;6.45;45.72
52855;BME280;38719;51.418;7.286;2023-03-01T11:43:51;100821.03;;;6.39;46.15
52855;BME280;38719;51.418;7.286;2023-03-01T11:46:38;100815.47;;;6.59;45.87
52855;BME280;38719;51.418;7.286;2023-03-01T11:49:34;100820.66;;;6.65;45.79
52855;BME280;38719;51.418;7.286;2023-03-01T11:52:10;100827.75;;;6.63;45.92
52855;BME280;38719;51.418;7.286;2023-03-01T11:54:50;100821.25;;;6.86;44.86
52855;BME280;38719;51.418;7.286;2023-03-01T11:57:37;100824.63;;;6.94;44.71
52855;BME280;38719;51.418;7.286;2023-03-01T12:00:25;100813.41;;;6.78;45.17
52855;BME280;38719;51.418;7.286;2023-03-01T12:03:21;100812.31;;;6.91;45.04
52855;BME280;38719;51.418;7.286;2023-03-01T12:09:17;100806.84;;;7.02;45.30
52855;BME280;38719;51.418;7.286;2023-03-01T12:12:04;100803.94;;;7.16;44.57
52855;BME280;38719;51.418;7.286;2023-03-01T12:14:55;100808.16;;;7.28;44.66
52855;BME280;38719;51.418;7.286;2023-03-01T12:17:43;100805.22;;;7.45;44.34
52855;BME280;38719;51.418;7.286;2023-03-01T12:20:21;100799.44;;;7.23;43.42
52855;BME280;38719;51.418;7.286;2023-03-01T12:25:58;100789.88;;;7.14;43.47
52855;BME280;38719;51.418;7.286;2023-03-01T12:28:41;100788.13;;;7.13;44.02
52855;BME280;38719;51.418;7.286;2023-03-01T12:31:37;100778.25;;;7.21;43.95
52855;BME280;38719;51.418;7.286;2023-03-01T12:34:23;100783.72;;;7.12;43.01
52855;BME280;38719;51.418;7.286;2023-03-01T12:37:08;100774.69;;;7.24;44.05
52855;BME280;38719;51.418;7.286;2023-03-01T12:39:51;100771.31;;;7.16;42.54
52855;BME280;38719;51.418;7.286;2023-03-01T12:42:28;100770.56;;;7.07;43.43
52855;BME280;38719;51.418;7.286;2023-03-01T12:45:19;100771.34;;;7.13;43.23
52855;BME280;38719;51.418;7.286;2023-03-01T12:48:09;100768.69;;;7.13;43.93
52855;BME280;38719;51.418;7.286;2023-03-01T12:50:47;100764.22;;;7.18;42.25
52855;BME280;38719;51.418;7.286;2023-03-01T12:53:22;100753.50;;;7.22;42.71
52855;BME280;38719;51.418;7.286;2023-03-01T12:55:52;100751.94;;;7.12;42.56
52855;BME280;38719;51.418;7.286;2023-03-01T12:58:26;100760.75;;;7.13;42.78
52855;BME280;38719;51.418;7.286;2023-03-01T13:01:21;100761.56;;;7.18;42.95
52855;BME280;38719;51.418;7.286;2023-03-01T13:04:12;100754.31;;;7.26;42.73
52855;BME280;38719;51.418;7.286;2023-03-01T13:06:47;100760.56;;;7.23;42.99
52855;BME280;38719;51.418;7.286;2023-03-01T13:09:27;100748.38;;;7.13;41.99
52855;BME280;38719;51.418;7.286;2023-03-01T13:11:57;100751.72;;;7.24;41.17
52855;BME280;38719;51.418;7.286;2023-03-01T13:14:46;100737.50;;;7.30;42.23
52855;BME280;38719;51.418;7.286;2023-03-01T13:17:33;100751.78;;;7.20;42.32
52855;BME280;38719;51.418;7.286;2023-03-01T13:20:13;100738.38;;;7.28;41.85
52855;BME280;38719;51.418;7.286;2023-03-01T13:22:42;100730.97;;;7.47;42.35
52855;BME280;38719;51.418;7.286;2023-03-01T13:25:20;100743.44;;;7.41;41.54
52855;BME280;38719;51.418;7.286;2023-03-01T13:31:11;100739.91;;;7.42;41.39